Time;durP1;ratioP1;P1;durP2;ratioP2;P2;SDS_P1;SDS_P2;PMS_P1;PMS_P2;Temp;Humidity;BMP_temperature;BMP_pressure;BME280_temperature;BME280_humidity;BME280_pressure;Samples;Min_cycle;Max_cycle;Signal;HPM_P1;HPM_P2
2023/10/25 00:01:48;;;;;;;21.30;6.63;;;;;;;10.40;100.00;100164.66;5209101;28;20018;-83
2023/10/25 00:04:18;;;;;;;14.63;5.13;;;;;;;10.42;100.00;100161.78;5205049;28;20032;-82
2023/10/25 00:06:49;;;;;;;16.25;5.78;;;;;;;10.45;100.00;100159.56;5207837;28;20013;-82
2023/10/25 00:09:19;;;;;;;17.95;4.68;;;;;;;10.48;100.00;100156.50;5204322;28;20577;-83
2023/10/25 00:11:50;;;;;;;18.02;4.70;;;;;;;10.58;100.00;100154.38;5206844;28;20018;-83
2023/10/25 00:14:20;;;;;;;13.57;4.47;;;;;;;10.59;100.00;100152.53;5209008;28;20021;-83
2023/10/25 00:16:51;;;;;;;18.27;4.95;;;;;;;10.59;100.00;100148.03;5208245;28;20100;-83
2023/10/25 00:19:21;;;;;;;17.90;4.65;;;;;;;10.68;100.00;100146.06;5202858;28;20029;-82
2023/10/25 00:21:52;;;;;;;12.65;4.22;;;;;;;10.71;100.00;100135.00;5204410;28;20017;-82
2023/10/25 00:24:23;;;;;;;7.70;4.07;;;;;;;10.75;100.00;100143.50;5202649;28;20033;-82
2023/10/25 00:26:54;;;;;;;15.57;4.65;;;;;;;10.79;100.00;100144.78;5204579;28;20152;-82
2023/10/25 00:29:24;;;;;;;14.10;4.68;;;;;;;10.88;100.00;100143.69;5205771;28;20048;-83
2023/10/25 00:31:55;;;;;;;17.38;4.57;;;;;;;10.88;100.00;100141.00;5207545;28;20089;-83
2023/10/25 00:34:26;;;;;;;14.30;3.80;;;;;;;10.88;100.00;100141.00;5208032;28;20045;-84
2023/10/25 00:36:57;;;;;;;15.63;3.97;;;;;;;10.94;100.00;100137.56;5207054;28;20057;-83
2023/10/25 00:39:28;;;;;;;11.85;4.45;;;;;;;10.94;100.00;100132.19;5208213;28;20057;-83
2023/10/25 00:41:58;;;;;;;10.82;3.70;;;;;;;11.00;100.00;100130.66;5208399;28;20162;-84
2023/10/25 00:44:29;;;;;;;14.05;3.80;;;;;;;11.07;100.00;100127.00;5190545;28;20029;-83
2023/10/25 00:47:00;;;;;;;36.65;7.22;;;;;;;11.07;100.00;100118.97;5208208;28;20017;-83
2023/10/25 00:49:31;;;;;;;9.80;3.67;;;;;;;11.10;100.00;100112.41;5206986;28;20108;-82
2023/10/25 00:52:02;;;;;;;15.77;4.07;;;;;;;11.20;100.00;100112.13;5207942;28;20025;-83
2023/10/25 00:54:33;;;;;;;12.10;3.60;;;;;;;11.25;100.00;100105.16;5180176;28;20499;-83
2023/10/25 00:57:03;;;;;;;7.53;3.22;;;;;;;11.30;100.00;100109.97;5204040;28;20032;-83
2023/10/25 00:59:35;;;;;;;10.32;3.22;;;;;;;11.29;100.00;100105.59;5201595;28;20381;-83
2023/10/25 01:02:07;;;;;;;12.40;3.55;;;;;;;11.30;100.00;100110.78;5202000;28;20028;-83
2023/10/25 01:04:38;;;;;;;8.52;3.55;;;;;;;11.30;100.00;100107.28;5202406;28;20021;-83
2023/10/25 01:07:08;;;;;;;8.30;3.13;;;;;;;11.31;100.00;100106.25;5204775;28;20016;-83
2023/10/25 01:09:39;;;;;;;8.32;3.10;;;;;;;11.27;100.00;100102.28;5199894;28;20029;-83
2023/10/25 01:12:10;;;;;;;6.68;2.70;;;;;;;11.27;100.00;100102.28;5206255;28;20060;-83
2023/10/25 01:14:41;;;;;;;9.95;3.05;;;;;;;11.26;100.00;100097.94;5202310;28;20181;-84
2023/10/25 01:17:11;;;;;;;9.27;2.90;;;;;;;11.21;100.00;100092.28;5205018;28;20017;-83
2023/10/25 01:19:42;;;;;;;21.30;3.42;;;;;;;11.19;100.00;100089.78;5191549;28;20014;-83
2023/10/25 01:22:12;;;;;;;13.68;3.38;;;;;;;11.13;100.00;100083.31;5207573;28;20029;-84
2023/10/25 01:24:43;;;;;;;13.65;3.92;;;;;;;11.08;100.00;100085.72;5202254;28;20018;-83
2023/10/25 01:27:14;;;;;;;11.18;3.17;;;;;;;11.01;100.00;100084.81;5207027;28;20022;-84
2023/10/25 01:29:44;;;;;;;8.95;2.67;;;;;;;10.95;100.00;100082.91;5188629;28;20464;-84
2023/10/25 01:32:15;;;;;;;11.85;3.80;;;;;;;10.87;100.00;100088.34;5207528;28;20539;-84
2023/10/25 01:34:45;;;;;;;9.10;2.83;;;;;;;10.80;100.00;100076.72;5207390;28;20025;-83
2023/10/25 01:37:17;;;;;;;7.35;3.30;;;;;;;10.77;100.00;100072.53;5205718;28;20029;-84
2023/10/25 01:39:47;;;;;;;13.52;3.25;;;;;;;10.77;100.00;100069.03;5205067;28;20092;-84
2023/10/25 01:42:18;;;;;;;12.95;3.45;;;;;;;10.76;100.00;100060.16;5185363;28;20025;-84
2023/10/25 01:44:48;;;;;;;8.05;2.75;;;;;;;10.74;100.00;100061.34;5205145;28;20017;-84
2023/10/25 01:47:20;;;;;;;12.02;3.13;;;;;;;10.74;100.00;100046.06;5203469;28;20078;-84
2023/10/25 01:49:50;;;;;;;11.90;3.00;;;;;;;10.74;100.00;100050.59;5197909;28;20017;-84
2023/10/25 01:52:21;;;;;;;11.43;4.20;;;;;;;10.74;100.00;100046.06;5205041;28;20082;-83
2023/10/25 01:54:52;;;;;;;12.57;2.88;;;;;;;10.73;100.00;100032.84;5205698;28;20022;-83
2023/10/25 01:57:22;;;;;;;10.10;2.85;;;;;;;10.73;100.00;100038.22;5206033;28;20021;-82
2023/10/25 01:59:53;;;;;;;8.88;3.10;;;;;;;10.76;100.00;100035.19;5203588;28;20433;-81
2023/10/25 02:02:24;;;;;;;8.82;2.97;;;;;;;10.77;100.00;100029.63;5203431;28;20071;-81
2023/10/25 02:04:54;;;;;;;13.82;3.00;;;;;;;10.80;100.00;100018.53;5202276;28;20407;-81
2023/10/25 02:07:25;;;;;;;12.45;3.83;;;;;;;10.82;100.00;100018.31;5201272;28;20476;-81
2023/10/25 02:10:02;;;;;;;9.60;3.17;;;;;;;10.85;100.00;100017.97;5201886;28;20017;-81
2023/10/25 02:12:33;;;;;;;11.00;2.78;;;;;;;10.89;100.00;100016.53;5203656;28;20025;-81
2023/10/25 02:15:04;;;;;;;5.72;3.10;;;;;;;10.95;100.00;100004.25;5204695;28;20044;-81
2023/10/25 02:17:42;;;;;;;12.02;3.00;;;;;;;10.98;100.00;99993.13;5201411;28;20033;-81
2023/10/25 02:20:13;;;;;;;10.65;3.67;;;;;;;10.98;100.00;99987.75;5201833;28;20025;-81
2023/10/25 02:22:45;;;;;;;7.50;2.35;;;;;;;10.97;100.00;99992.28;5201282;28;20029;-81
2023/10/25 02:25:15;;;;;;;8.18;2.90;;;;;;;10.94;100.00;99986.44;5200331;28;20025;-81
2023/10/25 02:27:46;;;;;;;5.15;2.50;;;;;;;10.90;100.00;99986.03;5199891;28;20017;-81
2023/10/25 02:30:17;;;;;;;16.70;3.67;;;;;;;10.85;100.00;99980.41;5200004;28;20018;-81
2023/10/25 02:32:47;;;;;;;11.43;2.90;;;;;;;10.79;100.00;99973.94;5200392;28;20022;-81
2023/10/25 02:35:18;;;;;;;10.18;2.67;;;;;;;10.76;100.00;99965.44;5202291;28;20472;-81
2023/10/25 02:37:48;;;;;;;9.75;2.75;;;;;;;10.76;100.00;99963.56;5184322;28;20025;-81
2023/10/25 02:40:19;;;;;;;11.88;3.13;;;;;;;10.75;100.00;99958.41;5202677;28;20029;-81
2023/10/25 02:42:50;;;;;;;9.38;3.10;;;;;;;10.77;100.00;99967.09;5201442;28;20063;-81
2023/10/25 02:45:20;;;;;;;7.57;2.63;;;;;;;10.77;100.00;99957.19;5203286;28;20120;-81
2023/10/25 02:47:51;;;;;;;5.82;2.58;;;;;;;10.76;100.00;99952.84;5202875;28;20047;-81
2023/10/25 02:50:21;;;;;;;9.65;2.75;;;;;;;10.77;100.00;99950.97;5202481;28;20104;-81
2023/10/25 02:52:52;;;;;;;9.02;2.45;;;;;;;10.76;100.00;99950.16;5192121;28;20365;-81
2023/10/25 02:55:22;;;;;;;4.88;2.85;;;;;;;10.76;100.00;99946.66;5201561;28;20119;-81
2023/10/25 02:57:53;;;;;;;5.70;2.92;;;;;;;10.73;100.00;99947.84;5202075;28;20064;-81
2023/10/25 03:00:23;;;;;;;5.45;3.03;;;;;;;10.72;100.00;99938.13;5201437;28;20396;-81
2023/10/25 03:02:54;;;;;;;8.82;3.03;;;;;;;10.72;100.00;99942.66;5192732;28;20231;-82
2023/10/25 03:05:24;;;;;;;10.73;2.80;;;;;;;10.71;100.00;99933.78;5188870;28;20037;-82
2023/10/25 03:07:54;;;;;;;14.48;3.05;;;;;;;10.73;100.00;99936.28;5201421;28;20021;-83
2023/10/25 03:10:25;;;;;;;3.67;2.55;;;;;;;10.72;100.00;99932.78;5200717;28;20044;-82
2023/10/25 03:12:55;;;;;;;10.40;3.35;;;;;;;10.73;100.00;99931.75;5202010;28;20028;-82
2023/10/25 03:15:26;;;;;;;10.05;3.45;;;;;;;10.74;100.00;99933.41;5205970;28;20033;-82
2023/10/25 03:17:56;;;;;;;8.95;3.03;;;;;;;10.75;100.00;99919.00;5190045;28;20017;-82
2023/10/25 03:20:28;;;;;;;8.25;2.70;;;;;;;10.77;100.00;99929.53;5207525;28;20053;-82
2023/10/25 03:22:59;;;;;;;9.18;3.35;;;;;;;10.79;100.00;99931.00;5191078;28;20583;-82
2023/10/25 03:25:29;;;;;;;9.38;3.28;;;;;;;10.81;100.00;99920.91;5201753;28;20029;-82
2023/10/25 03:28:00;;;;;;;8.25;3.30;;;;;;;10.85;100.00;99916.81;5204799;28;20480;-82
2023/10/25 03:30:30;;;;;;;12.32;3.22;;;;;;;10.89;100.00;99910.06;5207649;28;20036;-83
2023/10/25 03:33:01;;;;;;;14.15;2.90;;;;;;;10.93;100.00;99907.81;5207266;28;20026;-82
2023/10/25 03:35:31;;;;;;;5.68;2.70;;;;;;;10.96;100.00;99902.06;5207313;28;20036;-84
2023/10/25 03:38:02;;;;;;;12.52;2.92;;;;;;;10.96;100.00;99899.38;5190639;28;20096;-82
2023/10/25 03:40:32;;;;;;;7.30;3.08;;;;;;;11.00;100.00;99907.88;5206794;28;20047;-83
2023/10/25 03:43:03;;;;;;;11.57;3.17;;;;;;;11.02;100.00;99901.28;5207144;28;20116;-83
2023/10/25 03:45:33;;;;;;;11.00;2.80;;;;;;;11.06;100.00;99896.38;5206102;28;20021;-83
2023/10/25 03:48:04;;;;;;;9.57;2.70;;;;;;;11.08;100.00;99902.38;5206534;28;20472;-83
2023/10/25 03:50:36;;;;;;;12.38;3.20;;;;;;;11.11;100.00;99893.94;5205113;28;20017;-83
2023/10/25 03:53:06;;;;;;;10.05;2.65;;;;;;;11.15;100.00;99888.00;5207735;28;20048;-84
2023/10/25 03:55:37;;;;;;;10.50;2.80;;;;;;;11.17;100.00;99882.44;5188579;28;20099;-84
2023/10/25 03:58:08;;;;;;;9.18;2.75;;;;;;;11.18;100.00;99881.41;5207696;28;20097;-84
2023/10/25 04:00:38;;;;;;;10.82;2.92;;;;;;;11.19;100.00;99883.06;5196708;28;20030;-83
2023/10/25 04:03:09;;;;;;;10.07;3.60;;;;;;;11.20;100.00;99883.91;5206491;28;20083;-83
2023/10/25 04:05:39;;;;;;;6.63;2.63;;;;;;;11.22;100.00;99881.84;5198879;28;20021;-83
2023/10/25 04:08:10;;;;;;;8.48;2.75;;;;;;;11.23;100.00;99870.91;5208342;28;20021;-83
2023/10/25 04:10:40;;;;;;;12.27;3.00;;;;;;;11.23;100.00;99875.44;5206428;28;20025;-84
2023/10/25 04:13:11;;;;;;;8.02;2.47;;;;;;;11.25;100.00;99868.06;5208295;28;20023;-83
2023/10/25 04:15:41;;;;;;;10.60;2.33;;;;;;;11.26;100.00;99857.13;5208590;28;20030;-83
2023/10/25 04:18:12;;;;;;;7.63;3.20;;;;;;;11.27;100.00;99844.50;5207498;28;20070;-83
2023/10/25 04:20:42;;;;;;;11.50;2.67;;;;;;;11.27;100.00;99848.03;5207460;28;20399;-83
2023/10/25 04:23:13;;;;;;;12.10;2.92;;;;;;;11.26;100.00;99845.53;5205666;28;20055;-83
2023/10/25 04:25:43;;;;;;;13.02;2.78;;;;;;;11.21;100.00;99842.63;5202182;28;20032;-82
2023/10/25 04:28:14;;;;;;;7.97;2.40;;;;;;;11.23;100.00;99843.25;5206352;28;20097;-82
2023/10/25 04:30:45;;;;;;;12.95;3.03;;;;;;;11.19;100.00;99840.09;5203880;28;20021;-81
2023/10/25 04:33:15;;;;;;;9.70;2.75;;;;;;;11.14;100.00;99829.97;5204902;28;20036;-81
2023/10/25 04:35:46;;;;;;;12.02;2.92;;;;;;;11.15;100.00;99823.56;5205269;28;20025;-82
2023/10/25 04:38:16;;;;;;;10.23;2.75;;;;;;;11.19;100.00;99828.53;5207045;28;20025;-82
2023/10/25 04:40:47;;;;;;;12.15;2.78;;;;;;;11.23;100.00;99819.06;5205626;28;20026;-82
2023/10/25 04:43:17;;;;;;;6.50;2.38;;;;;;;11.24;100.00;99815.34;5207340;28;20100;-81
2023/10/25 04:45:48;;;;;;;6.85;2.67;;;;;;;11.26;100.00;99811.47;5190932;28;20399;-83
2023/10/25 04:48:19;;;;;;;8.57;2.63;;;;;;;11.28;100.00;99805.91;5207781;28;20045;-84
2023/10/25 04:50:49;;;;;;;10.88;3.03;;;;;;;11.31;100.00;99800.97;5203994;28;20428;-78
2023/10/25 04:53:20;;;;;;;13.95;2.60;;;;;;;11.31;100.00;99794.78;5203547;28;20040;-78
2023/10/25 04:55:50;;;;;;;6.78;2.58;;;;;;;11.32;100.00;99793.75;5202540;28;20052;-78
2023/10/25 04:58:21;;;;;;;4.40;2.42;;;;;;;11.32;100.00;99785.69;5202630;28;20032;-77
2023/10/25 05:00:51;;;;;;;9.93;2.90;;;;;;;11.36;100.00;99786.97;5193122;28;20040;-77
2023/10/25 05:03:22;;;;;;;11.57;3.00;;;;;;;11.40;100.00;99781.00;5203300;28;20036;-80
2023/10/25 05:05:54;;;;;;;9.77;2.80;;;;;;;11.41;100.00;99782.66;5187236;28;20400;-82
2023/10/25 05:08:25;;;;;;;13.80;2.67;;;;;;;11.44;100.00;99775.22;5204533;28;20032;-82
2023/10/25 05:11:03;;;;;;;4.80;2.10;;;;;;;11.45;100.00;99769.66;5205863;28;20480;-82
2023/10/25 05:13:34;;;;;;;5.43;2.30;;;;;;;11.45;100.00;99760.78;5205685;28;20097;-82
2023/10/25 05:16:05;;;;;;;6.03;1.92;;;;;;;11.43;100.00;99750.22;5204693;28;20009;-82
2023/10/25 05:18:36;;;;;;;9.48;2.70;;;;;;;11.51;100.00;99750.06;5205447;28;20032;-81
2023/10/25 05:21:07;;;;;;;7.88;3.53;;;;;;;11.49;100.00;99754.78;5200048;28;20029;-81
2023/10/25 05:23:38;;;;;;;3.80;2.10;;;;;;;11.51;100.00;99749.25;5204517;28;20037;-81
2023/10/25 05:26:09;;;;;;;11.23;2.15;;;;;;;11.54;100.00;99738.91;5192046;28;20040;-81
2023/10/25 05:28:39;;;;;;;7.28;2.03;;;;;;;11.56;100.00;99749.47;5201334;28;20108;-82
2023/10/25 05:31:16;;;;;;;6.88;2.40;;;;;;;11.53;100.00;99756.06;5193534;28;20064;-82
2023/10/25 05:33:47;;;;;;;9.20;2.00;;;;;;;11.51;100.00;99759.97;5203892;28;20087;-81
2023/10/25 05:36:17;;;;;;;11.18;2.22;;;;;;;11.56;100.00;99755.66;5198007;28;20021;-81
2023/10/25 05:38:48;;;;;;;8.43;2.30;;;;;;;11.55;100.00;99756.69;5205152;28;20025;-81
2023/10/25 05:41:20;;;;;;;7.07;2.20;;;;;;;11.59;100.00;99751.75;5206089;28;20037;-81
2023/10/25 05:44:01;;;;;;;4.65;1.90;;;;;;;11.57;100.00;99751.94;5193312;28;20529;-80
2023/10/25 05:46:32;;;;;;;4.60;1.77;;;;;;;11.57;100.00;99751.13;5197154;28;20032;-80
2023/10/25 05:49:03;;;;;;;7.68;1.98;;;;;;;11.60;100.00;99750.75;5202916;28;20026;-80
2023/10/25 05:51:34;;;;;;;8.98;1.92;;;;;;;11.63;100.00;99751.16;5184775;28;20076;-79
2023/10/25 05:54:05;;;;;;;6.78;2.10;;;;;;;11.66;100.00;99755.31;5192237;28;20048;-80
2023/10/25 05:56:36;;;;;;;7.85;1.92;;;;;;;11.62;100.00;99748.66;5197318;28;20085;-79
2023/10/25 05:59:07;;;;;;;5.40;2.13;;;;;;;11.66;100.00;99744.56;5201096;28;20021;-80
2023/10/25 06:01:42;;;;;;;6.05;2.15;;;;;;;11.53;100.00;99742.63;5199299;28;20029;-78
2023/10/25 06:04:12;;;;;;;4.03;1.80;;;;;;;11.60;100.00;99735.44;5193267;28;20061;-79
2023/10/25 06:06:45;;;;;;;12.98;2.35;;;;;;;11.61;100.00;99737.09;5201732;28;20056;-79
2023/10/25 06:09:16;;;;;;;6.03;2.15;;;;;;;11.59;100.00;99725.69;5198761;28;20022;-80
2023/10/25 06:11:47;;;;;;;5.40;1.98;;;;;;;11.65;100.00;99727.63;5200416;28;20040;-79
2023/10/25 06:14:18;;;;;;;6.85;2.30;;;;;;;11.66;100.00;99717.69;5196384;28;20144;-80
2023/10/25 06:16:49;;;;;;;8.02;2.00;;;;;;;11.60;100.00;99708.59;5184411;28;20192;-80
2023/10/25 06:19:19;;;;;;;4.72;2.50;;;;;;;11.63;100.00;99701.97;5199072;28;20023;-79
2023/10/25 06:21:50;;;;;;;13.05;2.53;;;;;;;11.62;100.00;99703.00;5200182;28;20033;-80
2023/10/25 06:24:21;;;;;;;10.15;2.05;;;;;;;11.62;100.00;99693.06;5197716;28;20018;-79
2023/10/25 06:26:51;;;;;;;7.63;2.50;;;;;;;11.60;100.00;99686.28;5196884;28;20025;-80
2023/10/25 06:29:24;;;;;;;9.48;2.45;;;;;;;11.60;100.00;99681.72;5180617;28;20072;-78
2023/10/25 06:31:54;;;;;;;8.57;2.60;;;;;;;11.56;100.00;99685.00;5193130;28;20101;-78
2023/10/25 06:34:25;;;;;;;8.45;2.72;;;;;;;11.55;100.00;99670.75;5201168;28;20487;-82
2023/10/25 06:36:56;;;;;;;6.95;2.42;;;;;;;11.56;100.00;99669.72;5193523;28;20068;-78
2023/10/25 06:39:27;;;;;;;13.57;2.95;;;;;;;11.54;100.00;99661.00;5201305;28;20033;-80
2023/10/25 06:41:58;;;;;;;7.15;2.72;;;;;;;11.52;100.00;99657.72;5198036;28;20029;-80
2023/10/25 06:44:29;;;;;;;12.20;2.92;;;;;;;11.55;100.00;99651.94;5197491;28;20716;-80
2023/10/25 06:47:00;;;;;;;6.38;3.28;;;;;;;11.55;100.00;99643.06;5194346;28;20034;-81
2023/10/25 06:49:31;;;;;;;5.65;2.53;;;;;;;11.55;100.00;99635.00;5204486;28;20036;-80
2023/10/25 06:52:02;;;;;;;7.78;3.28;;;;;;;11.55;100.00;99633.16;5201202;28;20677;-82
2023/10/25 06:54:33;;;;;;;6.00;2.92;;;;;;;11.53;100.00;99629.00;5204591;28;20034;-82
2023/10/25 06:57:04;;;;;;;8.10;2.78;;;;;;;11.53;100.00;99623.63;5198472;28;20112;-82
2023/10/25 06:59:34;;;;;;;5.50;2.50;;;;;;;11.53;100.00;99611.00;5204977;28;20030;-81
2023/10/25 07:02:19;;;;;;;8.95;2.85;;;;;;;11.49;100.00;99599.00;5201272;28;20030;-82
2023/10/25 07:05:01;;;;;;;11.98;2.90;;;;;;;11.49;100.00;99590.13;5202296;28;20104;-82
2023/10/25 07:07:33;;;;;;;6.28;2.95;;;;;;;11.45;100.00;99581.69;5203652;28;20021;-81
2023/10/25 07:10:06;;;;;;;8.65;3.17;;;;;;;11.46;100.00;99579.81;5197938;28;20041;-82
2023/10/25 07:12:36;;;;;;;8.95;2.75;;;;;;;11.46;100.00;99572.59;5202063;28;20021;-82
2023/10/25 07:15:08;;;;;;;12.18;2.75;;;;;;;11.47;100.00;99574.22;5203303;28;20028;-82
2023/10/25 07:17:39;;;;;;;10.05;2.70;;;;;;;11.47;100.00;99568.03;5197874;28;20030;-82
2023/10/25 07:20:13;;;;;;;7.88;2.80;;;;;;;11.44;100.00;99563.06;5197373;28;20395;-82
2023/10/25 07:22:44;;;;;;;5.47;2.90;;;;;;;11.47;100.00;99552.75;5171530;28;20029;-83
2023/10/25 07:25:14;;;;;;;9.25;3.00;;;;;;;11.49;100.00;99550.69;5203359;28;20096;-83
2023/10/25 07:27:45;;;;;;;12.98;3.22;;;;;;;11.48;100.00;99543.66;5183503;28;20109;-82
2023/10/25 07:30:15;;;;;;;10.30;3.10;;;;;;;11.54;100.00;99542.00;5193882;28;20617;-82
2023/10/25 07:32:46;;;;;;;9.32;3.58;;;;;;;11.53;100.00;99529.63;5188510;28;20885;-82
2023/10/25 07:35:16;;;;;;;9.80;4.28;;;;;;;11.49;100.00;99515.75;5203168;28;20026;-82
2023/10/25 07:37:47;;;;;;;8.48;3.38;;;;;;;11.43;100.00;99515.75;5199823;28;20034;-82
2023/10/25 07:40:18;;;;;;;7.57;3.38;;;;;;;11.47;100.00;99525.88;5201950;28;20021;-82
2023/10/25 07:42:48;;;;;;;7.57;3.25;;;;;;;11.44;100.00;99528.97;5204201;28;20025;-82
2023/10/25 07:45:19;;;;;;;9.38;3.97;;;;;;;11.45;100.00;99527.13;5203959;28;20083;-82
2023/10/25 07:47:49;;;;;;;9.07;3.95;;;;;;;11.48;100.00;99508.75;5202142;28;20029;-82
2023/10/25 07:50:20;;;;;;;19.27;4.75;;;;;;;11.48;100.00;99500.69;5197753;28;20036;-82
2023/10/25 07:52:51;;;;;;;11.50;4.30;;;;;;;11.53;100.00;99500.91;5189796;28;20055;-82
2023/10/25 07:55:22;;;;;;;10.00;4.07;;;;;;;11.54;100.00;99502.53;5204008;28;20484;-82
2023/10/25 07:57:54;;;;;;;10.27;4.30;;;;;;;11.55;100.00;99496.16;5201964;28;20022;-82
2023/10/25 08:00:24;;;;;;;8.52;3.72;;;;;;;11.56;100.00;99486.25;5202387;28;20067;-82
2023/10/25 08:02:55;;;;;;;10.07;4.00;;;;;;;11.54;100.00;99493.66;5185397;28;20053;-82
2023/10/25 08:05:25;;;;;;;8.50;4.32;;;;;;;11.54;100.00;99486.44;5206338;28;20025;-82
2023/10/25 08:07:56;;;;;;;10.25;4.80;;;;;;;11.58;100.00;99487.69;5184745;28;20017;-82
2023/10/25 08:10:26;;;;;;;11.77;4.18;;;;;;;11.58;100.00;99485.00;5204840;28;20414;-82
2023/10/25 08:12:57;;;;;;;9.57;3.90;;;;;;;11.60;100.00;99485.63;5201435;28;20021;-82
2023/10/25 08:15:27;;;;;;;9.98;3.75;;;;;;;11.64;100.00;99484.16;5203240;28;20116;-82
2023/10/25 08:17:59;;;;;;;16.35;4.20;;;;;;;11.67;100.00;99480.25;5202715;28;20550;-82
2023/10/25 08:20:34;;;;;;;11.65;4.22;;;;;;;11.68;100.00;99468.47;5206921;28;20064;-82
2023/10/25 08:23:05;;;;;;;7.45;3.80;;;;;;;11.65;100.00;99460.84;5220549;28;20562;-82
2023/10/25 08:25:36;;;;;;;12.02;3.72;;;;;;;11.60;100.00;99463.31;5206686;28;20033;-82
2023/10/25 08:28:06;;;;;;;10.52;4.53;;;;;;;11.70;100.00;99460.19;5199967;28;20009;-83
2023/10/25 08:30:36;;;;;;;8.98;2.85;;;;;;;11.74;100.00;99443.44;5187347;28;20040;-82
2023/10/25 08:33:07;;;;;;;11.40;3.00;;;;;;;11.67;100.00;99434.59;5200287;28;20034;-82
2023/10/25 08:35:37;;;;;;;6.43;3.08;;;;;;;11.60;100.00;99429.22;5201738;28;20030;-82
2023/10/25 08:38:08;;;;;;;12.05;3.88;;;;;;;11.65;100.00;99420.53;5198494;28;20109;-82
2023/10/25 08:40:40;;;;;;;8.73;3.10;;;;;;;11.69;100.00;99416.38;5207598;28;20056;-82
2023/10/25 08:43:14;;;;;;;11.40;3.80;;;;;;;11.71;100.00;99414.34;5201563;28;20025;-82
2023/10/25 08:45:45;;;;;;;14.50;4.07;;;;;;;11.68;100.00;99407.50;5203970;28;20503;-82
2023/10/25 08:48:16;;;;;;;10.50;4.00;;;;;;;11.68;100.00;99404.81;5201716;28;20052;-82
2023/10/25 08:50:49;;;;;;;10.32;4.20;;;;;;;11.63;100.00;99401.94;5202707;28;20144;-82
2023/10/25 08:53:25;;;;;;;8.20;3.33;;;;;;;11.68;100.00;99395.94;5190429;28;20667;-82
2023/10/25 08:55:57;;;;;;;8.82;3.85;;;;;;;11.61;100.00;99392.44;5209064;28;20160;-83
2023/10/25 08:58:28;;;;;;;9.60;4.43;;;;;;;11.60;100.00;99399.69;5204496;28;20052;-83
2023/10/25 09:00:58;;;;;;;6.85;4.35;;;;;;;11.61;100.00;99387.88;5188621;28;20037;-82
2023/10/25 09:03:38;;;;;;;7.75;4.03;;;;;;;11.71;100.00;99383.97;5207469;28;20025;-83
2023/10/25 09:06:10;;;;;;;9.60;4.43;;;;;;;11.68;100.00;99385.19;5193312;28;20503;-82
2023/10/25 09:08:43;;;;;;;9.13;4.65;;;;;;;11.63;100.00;99374.25;5204760;28;20025;-82
2023/10/25 09:11:13;;;;;;;9.40;5.30;;;;;;;11.69;100.00;99365.34;5205831;28;20036;-82
2023/10/25 09:13:54;;;;;;;12.57;5.43;;;;;;;11.71;100.00;99362.47;5201909;28;20029;-82
2023/10/25 09:16:26;;;;;;;11.27;5.50;;;;;;;11.76;100.00;99354.59;5207209;28;20017;-83
2023/10/25 09:19:01;;;;;;;12.95;5.80;;;;;;;11.82;100.00;99343.88;5202629;28;20034;-83
2023/10/25 09:21:32;;;;;;;13.32;5.97;;;;;;;11.81;100.00;99344.06;5188679;28;20025;-83
2023/10/25 09:24:07;;;;;;;12.10;5.78;;;;;;;11.84;100.00;99327.53;5206425;28;20028;-83
2023/10/25 09:26:39;;;;;;;13.65;5.95;;;;;;;11.81;100.00;99327.94;5206408;28;20021;-83
2023/10/25 09:29:11;;;;;;;16.00;6.05;;;;;;;11.82;100.00;99321.53;5202156;28;20067;-83
2023/10/25 09:31:42;;;;;;;14.52;5.88;;;;;;;11.91;100.00;99333.72;5200105;28;20029;-82
2023/10/25 09:34:19;;;;;;;9.90;5.88;;;;;;;11.86;100.00;99320.91;5283337;27;20737;-73
2023/10/25 09:36:50;;;;;;;13.93;5.82;;;;;;;11.94;100.00;99327.91;5281561;27;20098;-73
2023/10/25 09:39:20;;;;;;;12.73;5.72;;;;;;;11.92;100.00;99322.75;5286665;27;20023;-73
2023/10/25 09:41:52;;;;;;;12.73;6.95;;;;;;;11.99;100.00;99314.66;5278259;28;20022;-73
2023/10/25 09:44:28;;;;;;;12.60;6.78;;;;;;;11.98;100.00;99312.19;5287068;27;20029;-73
2023/10/25 09:46:59;;;;;;;12.13;6.25;;;;;;;11.98;100.00;99318.38;5281956;28;20027;-73
2023/10/25 09:49:33;;;;;;;13.52;6.53;;;;;;;12.01;100.00;99311.78;5279909;28;20020;-74
2023/10/25 09:52:18;;;;;;;12.77;6.70;;;;;;;12.08;100.00;99308.00;5284210;28;20024;-73
2023/10/25 09:54:51;;;;;;;9.95;6.32;;;;;;;12.04;100.00;99304.09;5282248;28;20038;-73
2023/10/25 09:57:21;;;;;;;11.20;6.85;;;;;;;12.10;100.00;99297.06;5279969;28;20019;-73
2023/10/25 09:59:55;;;;;;;13.32;7.63;;;;;;;12.13;100.00;99302.81;5276800;28;20031;-73
2023/10/25 10:02:27;;;;;;;12.32;6.60;;;;;;;12.21;100.00;99296.38;5278019;28;20030;-73
2023/10/25 10:05:04;;;;;;;11.07;6.88;;;;;;;12.18;100.00;99294.94;5277733;28;20092;-73
2023/10/25 10:07:45;;;;;;;12.98;6.90;;;;;;;12.19;100.00;99279.63;5279974;27;20034;-73
2023/10/25 10:10:25;;;;;;;11.55;6.70;;;;;;;12.27;100.00;99278.56;5281373;28;20020;-73
2023/10/25 10:12:56;;;;;;;23.33;11.27;;;;;;;12.22;100.00;99273.00;5279627;28;20028;-73
2023/10/25 10:15:57;;;;;;;19.15;9.90;;;;;;;12.24;100.00;99260.16;5276008;28;20096;-72
2023/10/25 10:18:31;;;;;;;14.73;8.95;;;;;;;12.32;100.00;99266.13;5280369;28;21598;-73
2023/10/25 10:21:05;;;;;;;14.85;7.47;;;;;;;12.29;100.00;99258.47;5276101;28;20110;-72
2023/10/25 10:23:49;;;;;;;19.27;9.45;;;;;;;12.34;100.00;99247.88;5281972;27;20548;-73
2023/10/25 10:26:43;;;;;;;15.07;7.22;;;;;;;12.30;100.00;99245.84;5283759;28;20499;-72
2023/10/25 10:29:32;;;;;;;14.13;7.38;;;;;;;12.38;100.00;99243.72;5281016;28;20698;-73
2023/10/25 10:32:04;;;;;;;14.75;8.38;;;;;;;12.44;100.00;99236.66;5274723;27;20380;-73
2023/10/25 10:34:48;;;;;;;15.23;8.63;;;;;;;12.47;100.00;99236.22;5279132;27;20035;-73
2023/10/25 10:37:22;;;;;;;17.35;7.43;;;;;;;12.53;100.00;99229.97;5280725;28;20028;-73
2023/10/25 10:39:55;;;;;;;13.40;7.30;;;;;;;12.58;100.00;99227.44;5280948;28;20020;-73
2023/10/25 10:42:29;;;;;;;12.02;7.47;;;;;;;12.61;100.00;99227.03;5268192;28;20112;-73
2023/10/25 10:45:01;;;;;;;10.85;7.05;;;;;;;12.60;100.00;99229.91;5269654;28;20025;-73
2023/10/25 10:47:43;;;;;;;15.30;7.75;;;;;;;12.56;100.00;99223.34;5268156;28;20102;-73
2023/10/25 10:50:18;;;;;;;17.00;7.82;;;;;;;12.58;100.00;99214.00;5266022;28;20040;-73
2023/10/25 10:52:50;;;;;;;12.60;7.75;;;;;;;12.61;100.00;99216.25;5262294;28;20027;-73
2023/10/25 10:55:22;;;;;;;14.68;8.45;;;;;;;12.60;100.00;99203.88;5266735;28;20024;-73
2023/10/25 10:57:53;;;;;;;14.50;8.38;;;;;;;12.66;100.00;99202.97;5267178;28;20400;-73
2023/10/25 11:00:25;;;;;;;14.93;7.70;;;;;;;12.67;100.00;99199.25;5270552;28;20023;-73
2023/10/25 11:02:56;;;;;;;12.82;7.63;;;;;;;12.69;100.00;99199.84;5264258;28;20040;-73
2023/10/25 11:05:26;;;;;;;13.70;7.72;;;;;;;12.66;100.00;99194.91;5267001;28;20488;-72
2023/10/25 11:07:57;;;;;;;15.02;7.40;;;;;;;12.74;100.00;99183.03;5264909;28;20046;-72
2023/10/25 11:10:27;;;;;;;16.33;7.97;;;;;;;12.76;100.00;99182.84;5262860;28;20032;-73
2023/10/25 11:12:58;;;;;;;20.45;8.60;;;;;;;12.76;100.00;99175.59;5262217;28;20101;-72
2023/10/25 11:15:29;;;;;;;13.43;7.72;;;;;;;12.75;100.00;99175.78;5267917;28;20076;-73
2023/10/25 11:18:01;;;;;;;14.00;8.35;;;;;;;12.76;100.00;99167.50;5261731;28;20020;-72
2023/10/25 11:20:31;;;;;;;16.15;8.43;;;;;;;12.75;100.00;99175.78;5266404;28;20032;-72
2023/10/25 11:23:04;;;;;;;13.02;7.50;;;;;;;12.76;100.00;99175.59;5262728;28;20042;-72
2023/10/25 11:25:34;;;;;;;14.93;7.63;;;;;;;12.80;100.00;99168.72;5264922;28;20016;-73
2023/10/25 11:28:05;;;;;;;13.50;6.75;;;;;;;12.75;100.00;99159.63;5267218;28;20034;-73
2023/10/25 11:30:36;;;;;;;12.50;7.75;;;;;;;12.74;100.00;99160.69;5266845;28;20054;-73
2023/10/25 11:33:09;;;;;;;11.65;7.65;;;;;;;12.76;100.00;99155.91;5265043;28;20404;-72
2023/10/25 11:35:42;;;;;;;12.50;6.72;;;;;;;12.73;100.00;99153.66;5262693;28;20028;-72
2023/10/25 11:38:12;;;;;;;12.68;7.13;;;;;;;12.77;100.00;99144.94;5265125;28;20020;-72
2023/10/25 11:40:47;;;;;;;12.50;7.20;;;;;;;12.81;100.00;99146.13;5266635;28;20020;-73